Time;durP1;ratioP1;P1;durP2;ratioP2;P2;SDS_P1;SDS_P2;PMS_P1;PMS_P2;Temp;Humidity;BMP_temperature;BMP_pressure;BME280_temperature;BME280_humidity;BME280_pressure;Samples;Min_cycle;Max_cycle;Signal;HPM_P1;HPM_P2
2022/06/26 00:01:54;;;;;;;;;;;17.30;99.90;;;;;;5035669;28;20361;-82
2022/06/26 00:04:23;;;;;;;;;;;17.40;99.90;;;;;;5051302;28;20016;-82
2022/06/26 00:06:48;;;;;;;;;;;17.30;99.90;;;;;;5052175;28;19980;-82
2022/06/26 00:09:17;;;;;;;;;;;17.30;99.90;;;;;;5036013;28;19925;-81
2022/06/26 00:11:42;;;;;;;;;;;17.30;99.90;;;;;;5051736;28;19932;-82
2022/06/26 00:14:08;;;;;;;;;;;17.30;99.90;;;;;;5035517;28;19932;-82
2022/06/26 00:16:33;;;;;;;;;;;17.30;99.90;;;;;;5068759;28;19925;-81
2022/06/26 00:18:59;;;;;;;;;;;17.30;99.90;;;;;;5035762;28;19925;-82
2022/06/26 00:21:25;;;;;;;;;;;17.30;99.90;;;;;;5068730;28;19947;-82
2022/06/26 00:23:51;;;;;;;;;;;17.30;99.90;;;;;;5085507;28;19924;-82
2022/06/26 00:26:17;;;;;;;;;;;17.40;99.90;;;;;;5016018;28;20330;-82
2022/06/26 00:28:42;;;;;;;;;;;17.40;99.90;;;;;;5032291;28;20027;-82
2022/06/26 00:31:08;;;;;;;;;;;17.40;99.90;;;;;;5051931;28;19925;-83
2022/06/26 00:33:33;;;;;;;;;;;17.30;99.90;;;;;;5035270;28;19925;-84
2022/06/26 00:35:59;;;;;;;;;;;17.30;99.90;;;;;;5051187;28;19979;-84
2022/06/26 00:38:25;;;;;;;;;;;17.30;99.90;;;;;;5035508;28;19925;-84
2022/06/26 00:40:50;;;;;;;;;;;17.30;99.90;;;;;;5085104;28;19932;-84
2022/06/26 00:43:16;;;;;;;;;;;17.30;99.90;;;;;;5051570;28;19928;-84
2022/06/26 00:45:41;;;;;;;;;;;17.30;99.90;;;;;;5051583;28;20072;-83
2022/06/26 00:48:07;;;;;;;;;;;17.40;99.90;;;;;;5084736;28;19932;-85
2022/06/26 00:50:32;;;;;;;;;;;17.40;99.90;;;;;;5051926;28;19925;-84
2022/06/26 00:52:58;;;;;;;;;;;17.40;99.90;;;;;;5051502;28;19929;-84
2022/06/26 00:55:23;;;;;;;;;;;17.40;99.90;;;;;;5051851;28;19929;-84
2022/06/26 00:57:49;;;;;;;;;;;17.30;99.90;;;;;;5034759;28;19925;-84
2022/06/26 01:00:16;;;;;;;;;;;17.30;99.90;;;;;;5035394;28;19929;-84
2022/06/26 01:02:41;;;;;;;;;;;17.30;99.90;;;;;;5051039;28;19924;-84
2022/06/26 01:05:07;;;;;;;;;;;17.30;99.90;;;;;;5050668;28;19924;-83
2022/06/26 01:07:33;;;;;;;;;;;17.30;99.90;;;;;;5033288;28;19932;-84
2022/06/26 01:09:58;;;;;;;;;;;17.30;99.90;;;;;;5051051;28;19925;-84
2022/06/26 01:12:24;;;;;;;;;;;17.30;99.90;;;;;;5034962;28;19924;-83
2022/06/26 01:14:51;;;;;;;;;;;17.30;99.90;;;;;;5034572;28;19925;-84
2022/06/26 01:17:16;;;;;;;;;;;17.30;99.90;;;;;;5050719;28;19928;-84
2022/06/26 01:19:42;;;;;;;;;;;17.30;99.90;;;;;;5044228;28;19932;-85
2022/06/26 01:22:08;;;;;;;;;;;17.30;99.90;;;;;;5034586;28;20428;-84
2022/06/26 01:24:34;;;;;;;;;;;17.40;99.90;;;;;;5050806;28;20015;-84
2022/06/26 01:27:00;;;;;;;;;;;17.40;99.90;;;;;;5083471;28;20391;-84
2022/06/26 01:29:26;;;;;;;;;;;17.40;99.90;;;;;;5033933;28;19925;-84
2022/06/26 01:31:51;;;;;;;;;;;17.40;99.90;;;;;;5034392;28;19925;-85
2022/06/26 01:34:17;;;;;;;;;;;17.50;99.90;;;;;;5033869;28;19925;-84
2022/06/26 01:36:42;;;;;;;;;;;17.40;99.90;;;;;;5050289;28;19924;-84
2022/06/26 01:39:08;;;;;;;;;;;17.50;99.90;;;;;;5066590;28;19954;-85
2022/06/26 01:41:34;;;;;;;;;;;17.40;99.90;;;;;;5017945;28;19924;-84
2022/06/26 01:43:59;;;;;;;;;;;17.40;99.90;;;;;;5050501;28;19934;-84
2022/06/26 01:46:25;;;;;;;;;;;17.40;99.90;;;;;;5067331;28;19925;-85
2022/06/26 01:48:51;;;;;;;;;;;17.40;99.90;;;;;;5049448;27;19994;-85
2022/06/26 01:51:17;;;;;;;;;;;17.30;99.90;;;;;;5050507;28;19931;-84
2022/06/26 01:53:43;;;;;;;;;;;17.30;99.90;;;;;;5103965;27;20012;-84
2022/06/26 01:56:09;;;;;;;;;;;17.40;99.90;;;;;;5047439;28;19978;-84
2022/06/26 01:58:34;;;;;;;;;;;17.40;99.90;;;;;;5071521;28;19925;-85
2022/06/26 02:01:00;;;;;;;;;;;17.30;99.90;;;;;;5033262;28;19925;-84
2022/06/26 02:03:26;;;;;;;;;;;17.40;99.90;;;;;;5050806;28;20390;-84
2022/06/26 02:05:52;;;;;;;;;;;17.30;99.90;;;;;;5066601;28;19935;-85
2022/06/26 02:08:18;;;;;;;;;;;17.30;99.90;;;;;;5033682;28;20283;-84
2022/06/26 02:13:37;;;;;;;;;;;17.30;99.90;;;;;;5036119;28;20291;-84
2022/06/26 02:16:03;;;;;;;;;;;17.20;99.90;;;;;;5049601;28;19931;-84
2022/06/26 02:18:28;;;;;;;;;;;17.20;99.90;;;;;;5032896;28;19925;-84
2022/06/26 02:20:54;;;;;;;;;;;17.20;99.90;;;;;;5032328;28;19932;-85
2022/06/26 02:23:20;;;;;;;;;;;17.20;99.90;;;;;;5049831;28;19925;-85
2022/06/26 02:25:46;;;;;;;;;;;17.20;99.90;;;;;;5050159;28;19929;-84
2022/06/26 02:28:11;;;;;;;;;;;17.20;99.90;;;;;;5049764;28;20372;-84
2022/06/26 02:30:37;;;;;;;;;;;17.20;99.90;;;;;;5033250;28;19932;-84
2022/06/26 02:33:03;;;;;;;;;;;17.10;99.90;;;;;;5032741;28;19929;-84
2022/06/26 02:35:29;;;;;;;;;;;17.10;99.90;;;;;;5066767;28;20015;-84
2022/06/26 02:37:55;;;;;;;;;;;17.20;99.90;;;;;;5049790;28;19932;-84
2022/06/26 02:40:22;;;;;;;;;;;17.10;99.90;;;;;;5066730;27;19925;-84
2022/06/26 02:42:47;;;;;;;;;;;17.10;99.90;;;;;;5066439;28;19957;-85
2022/06/26 02:45:13;;;;;;;;;;;17.10;99.90;;;;;;5049714;28;20317;-84
2022/06/26 02:47:39;;;;;;;;;;;17.00;99.90;;;;;;5049882;28;19980;-83
2022/06/26 02:50:05;;;;;;;;;;;17.00;99.90;;;;;;5066033;28;20050;-83
2022/06/26 02:52:31;;;;;;;;;;;17.00;99.90;;;;;;5049365;28;20364;-83
2022/06/26 02:54:56;;;;;;;;;;;17.10;99.90;;;;;;5048902;28;19925;-84
2022/06/26 02:57:22;;;;;;;;;;;17.00;99.90;;;;;;5033382;28;19925;-81
2022/06/26 02:59:47;;;;;;;;;;;17.00;99.90;;;;;;5049917;28;19972;-81
2022/06/26 03:02:13;;;;;;;;;;;17.00;99.90;;;;;;5082830;28;19932;-81
2022/06/26 03:04:39;;;;;;;;;;;17.00;99.90;;;;;;5033106;28;19925;-81
2022/06/26 03:07:04;;;;;;;;;;;17.10;99.90;;;;;;5032750;28;20374;-80
2022/06/26 03:09:30;;;;;;;;;;;17.10;99.90;;;;;;5041363;28;20345;-79
2022/06/26 03:11:56;;;;;;;;;;;17.00;99.90;;;;;;5058956;28;19936;-80
2022/06/26 03:14:21;;;;;;;;;;;17.10;99.90;;;;;;5032891;28;20327;-80
2022/06/26 03:16:47;;;;;;;;;;;17.10;99.90;;;;;;5049779;28;19925;-80
2022/06/26 03:19:12;;;;;;;;;;;17.10;99.90;;;;;;5049613;28;20433;-80
2022/06/26 03:21:38;;;;;;;;;;;17.10;99.90;;;;;;5032629;28;20015;-80
2022/06/26 03:24:04;;;;;;;;;;;17.10;99.90;;;;;;5065917;28;19932;-80
2022/06/26 03:26:30;;;;;;;;;;;17.10;99.90;;;;;;5032868;28;19925;-80
2022/06/26 03:28:56;;;;;;;;;;;17.10;99.90;;;;;;5065143;28;20044;-86
2022/06/26 03:31:22;;;;;;;;;;;17.00;99.90;;;;;;5049613;28;19929;-80
2022/06/26 03:33:47;;;;;;;;;;;17.00;99.90;;;;;;5048472;28;19967;-80
2022/06/26 03:36:13;;;;;;;;;;;17.00;99.90;;;;;;5082614;28;20352;-80
2022/06/26 03:38:38;;;;;;;;;;;17.00;99.90;;;;;;5065522;28;19924;-80
2022/06/26 03:41:04;;;;;;;;;;;16.90;99.90;;;;;;5049239;28;19954;-80
2022/06/26 03:43:30;;;;;;;;;;;17.00;99.90;;;;;;5065635;28;19933;-80
2022/06/26 03:45:55;;;;;;;;;;;16.90;99.90;;;;;;5016106;28;19936;-80
2022/06/26 03:48:21;;;;;;;;;;;16.90;99.90;;;;;;5049026;28;19925;-80
2022/06/26 03:50:46;;;;;;;;;;;16.90;99.90;;;;;;5032778;28;19925;-79
2022/06/26 03:53:12;;;;;;;;;;;16.90;99.90;;;;;;5048903;28;19924;-80
2022/06/26 03:55:37;;;;;;;;;;;16.90;99.90;;;;;;5065222;28;19947;-80
2022/06/26 03:58:03;;;;;;;;;;;16.90;99.90;;;;;;5049289;28;19931;-80
2022/06/26 04:00:29;;;;;;;;;;;17.00;99.90;;;;;;5048937;28;19931;-80
2022/06/26 04:02:55;;;;;;;;;;;17.00;99.90;;;;;;5048897;28;19933;-79
2022/06/26 04:05:21;;;;;;;;;;;17.00;99.90;;;;;;5064985;28;19970;-80
2022/06/26 04:07:46;;;;;;;;;;;17.00;99.90;;;;;;5065765;28;20042;-80
2022/06/26 04:10:12;;;;;;;;;;;17.10;99.90;;;;;;5032392;28;20414;-80
2022/06/26 04:12:38;;;;;;;;;;;17.10;99.90;;;;;;5048601;28;19932;-80
2022/06/26 04:15:03;;;;;;;;;;;17.10;99.90;;;;;;5032251;28;19925;-80
2022/06/26 04:17:30;;;;;;;;;;;17.10;99.90;;;;;;5048670;28;19929;-80
2022/06/26 04:19:55;;;;;;;;;;;17.10;99.90;;;;;;5048658;28;19929;-80
2022/06/26 04:22:22;;;;;;;;;;;17.10;99.90;;;;;;5048754;28;19936;-80
2022/06/26 04:24:47;;;;;;;;;;;17.10;99.90;;;;;;5032326;28;19931;-80
2022/06/26 04:27:13;;;;;;;;;;;17.10;99.90;;;;;;5047994;28;20012;-80
2022/06/26 04:29:39;;;;;;;;;;;17.10;99.90;;;;;;5082198;28;19951;-80
2022/06/26 04:32:04;;;;;;;;;;;17.10;99.90;;;;;;5048756;28;19924;-81
2022/06/26 04:34:30;;;;;;;;;;;17.10;99.90;;;;;;5032278;28;19978;-80
2022/06/26 04:36:55;;;;;;;;;;;17.20;99.90;;;;;;5080868;28;19990;-81
2022/06/26 04:39:21;;;;;;;;;;;17.20;99.90;;;;;;5048592;28;19990;-80
2022/06/26 04:41:47;;;;;;;;;;;17.20;99.90;;;;;;5035303;28;19925;-80
2022/06/26 04:44:13;;;;;;;;;;;17.20;99.90;;;;;;5035477;28;19936;-81
2022/06/26 04:46:40;;;;;;;;;;;17.20;99.90;;;;;;5051562;28;19932;-80
2022/06/26 04:49:05;;;;;;;;;;;17.20;99.90;;;;;;5034958;28;20015;-81
2022/06/26 04:51:31;;;;;;;;;;;17.20;99.90;;;;;;5068420;28;20029;-81
2022/06/26 04:53:57;;;;;;;;;;;17.20;99.90;;;;;;5051700;28;19954;-80
2022/06/26 04:56:22;;;;;;;;;;;17.20;99.90;;;;;;5051685;28;20369;-80
2022/06/26 04:58:48;;;;;;;;;;;17.20;99.90;;;;;;5034255;28;19970;-80
2022/06/26 05:01:14;;;;;;;;;;;17.20;99.90;;;;;;5051760;28;20380;-80
2022/06/26 05:03:40;;;;;;;;;;;17.20;99.90;;;;;;5051830;28;20318;-80
2022/06/26 05:06:05;;;;;;;;;;;17.30;99.90;;;;;;5068272;28;20377;-80
2022/06/26 05:08:31;;;;;;;;;;;17.30;99.90;;;;;;5034655;28;19970;-80
2022/06/26 05:10:56;;;;;;;;;;;17.30;99.90;;;;;;5083433;28;19972;-79
2022/06/26 05:13:22;;;;;;;;;;;17.30;99.90;;;;;;5051092;28;19925;-81
2022/06/26 05:15:48;;;;;;;;;;;17.40;99.90;;;;;;5051232;28;19924;-83
2022/06/26 05:18:13;;;;;;;;;;;17.40;99.90;;;;;;5050742;28;19950;-83
2022/06/26 05:20:39;;;;;;;;;;;17.50;99.90;;;;;;5014714;28;19925;-84
2022/06/26 05:23:05;;;;;;;;;;;17.50;99.90;;;;;;5016079;28;20380;-83
2022/06/26 05:25:31;;;;;;;;;;;17.60;99.90;;;;;;5038423;28;19932;-84
2022/06/26 05:27:57;;;;;;;;;;;17.60;99.90;;;;;;5049767;28;20016;-83
2022/06/26 05:30:23;;;;;;;;;;;17.60;99.90;;;;;;5050358;28;19964;-84
2022/06/26 05:32:48;;;;;;;;;;;17.50;99.90;;;;;;5067796;28;20405;-84
2022/06/26 05:35:14;;;;;;;;;;;17.40;99.90;;;;;;5051006;28;19932;-84
2022/06/26 05:37:39;;;;;;;;;;;17.40;99.90;;;;;;5033829;28;20399;-82
2022/06/26 05:40:05;;;;;;;;;;;17.30;99.90;;;;;;5034194;28;20267;-84
2022/06/26 05:42:31;;;;;;;;;;;17.20;99.90;;;;;;5067535;27;19948;-84
2022/06/26 05:44:57;;;;;;;;;;;17.20;99.90;;;;;;5066897;28;19932;-83
2022/06/26 05:47:22;;;;;;;;;;;17.20;99.90;;;;;;5050434;28;20321;-83
2022/06/26 05:49:48;;;;;;;;;;;17.20;99.90;;;;;;5020205;28;20315;-84
2022/06/26 05:52:13;;;;;;;;;;;17.20;99.90;;;;;;5032500;28;20019;-83
2022/06/26 05:54:39;;;;;;;;;;;17.30;99.90;;;;;;5073934;28;19925;-82
2022/06/26 05:57:04;;;;;;;;;;;17.40;99.90;;;;;;5034454;28;19925;-82
2022/06/26 05:59:30;;;;;;;;;;;17.40;99.90;;;;;;5050017;28;19929;-85
2022/06/26 06:01:55;;;;;;;;;;;17.50;99.90;;;;;;5050494;28;19929;-87
2022/06/26 06:04:21;;;;;;;;;;;17.50;99.90;;;;;;5033416;28;19925;-87
2022/06/26 06:06:47;;;;;;;;;;;17.50;99.90;;;;;;5067259;28;20305;-86
2022/06/26 06:09:12;;;;;;;;;;;17.50;99.90;;;;;;5066946;28;19946;-85
2022/06/26 06:11:38;;;;;;;;;;;17.50;99.90;;;;;;5083638;28;20360;-86
2022/06/26 06:14:03;;;;;;;;;;;17.50;99.90;;;;;;5050505;28;19925;-86
2022/06/26 06:16:29;;;;;;;;;;;17.50;99.90;;;;;;5033487;28;20281;-86
2022/06/26 06:18:54;;;;;;;;;;;17.50;99.90;;;;;;5076245;27;19923;-86
2022/06/26 06:21:20;;;;;;;;;;;17.50;99.90;;;;;;5069841;27;19925;-86
2022/06/26 06:23:46;;;;;;;;;;;17.50;99.90;;;;;;5034815;28;19929;-86
2022/06/26 06:26:11;;;;;;;;;;;17.60;99.90;;;;;;5052059;28;20008;-90
2022/06/26 06:28:37;;;;;;;;;;;17.60;99.90;;;;;;5047048;28;19924;-83
2022/06/26 06:31:03;;;;;;;;;;;17.70;99.90;;;;;;5039723;28;20024;-85
2022/06/26 06:33:28;;;;;;;;;;;17.70;99.90;;;;;;5135247;27;19927;-82
2022/06/26 06:35:54;;;;;;;;;;;17.70;99.90;;;;;;5121394;27;20042;-82
2022/06/26 06:38:20;;;;;;;;;;;17.80;99.90;;;;;;5050184;28;20274;-82
2022/06/26 06:40:46;;;;;;;;;;;17.90;99.90;;;;;;5066939;28;19929;-82
2022/06/26 06:43:12;;;;;;;;;;;17.90;99.90;;;;;;5033500;28;19977;-80
2022/06/26 06:45:37;;;;;;;;;;;18.00;99.90;;;;;;5083591;28;19986;-82
2022/06/26 06:48:03;;;;;;;;;;;18.00;99.90;;;;;;5049331;28;19925;-82
2022/06/26 06:50:28;;;;;;;;;;;18.00;99.90;;;;;;5082732;28;19962;-82
2022/06/26 06:52:54;;;;;;;;;;;18.10;99.90;;;;;;5076106;28;19929;-81
2022/06/26 06:55:19;;;;;;;;;;;18.10;99.90;;;;;;5030180;28;20019;-81
2022/06/26 06:57:45;;;;;;;;;;;18.20;99.90;;;;;;5023155;28;20272;-81
2022/06/26 07:00:11;;;;;;;;;;;18.20;99.90;;;;;;5083647;28;20276;-79
2022/06/26 07:02:39;;;;;;;;;;;18.40;99.90;;;;;;5048538;28;19928;-80
2022/06/26 07:05:06;;;;;;;;;;;18.50;99.90;;;;;;5049945;28;19924;-80
2022/06/26 07:07:31;;;;;;;;;;;18.60;99.90;;;;;;5048898;28;20409;-79
2022/06/26 07:09:57;;;;;;;;;;;18.70;99.90;;;;;;5009683;28;20024;-77
2022/06/26 07:12:23;;;;;;;;;;;18.70;99.90;;;;;;5049281;28;19925;-78
2022/06/26 07:14:48;;;;;;;;;;;18.70;99.90;;;;;;5049496;28;19947;-78
2022/06/26 07:17:14;;;;;;;;;;;18.60;99.90;;;;;;5049918;28;19974;-78
2022/06/26 07:19:39;;;;;;;;;;;18.60;99.90;;;;;;5032300;28;19970;-78
2022/06/26 07:22:05;;;;;;;;;;;18.50;99.90;;;;;;5082956;28;19996;-78
2022/06/26 07:24:31;;;;;;;;;;;18.60;99.90;;;;;;5032626;28;19931;-78
2022/06/26 07:26:57;;;;;;;;;;;18.80;99.90;;;;;;5016431;28;19977;-78
2022/06/26 07:29:22;;;;;;;;;;;19.10;99.90;;;;;;5031884;28;19932;-83
2022/06/26 07:31:48;;;;;;;;;;;19.30;99.90;;;;;;5032772;28;19925;-80
2022/06/26 07:34:13;;;;;;;;;;;19.40;99.90;;;;;;5048801;28;19925;-79
2022/06/26 07:36:39;;;;;;;;;;;19.30;99.90;;;;;;5065592;28;19925;-80
2022/06/26 07:39:05;;;;;;;;;;;19.10;99.90;;;;;;5064731;28;20386;-80
2022/06/26 07:41:31;;;;;;;;;;;18.90;99.90;;;;;;5065618;28;20011;-80
2022/06/26 07:43:56;;;;;;;;;;;18.90;99.90;;;;;;5049453;28;19935;-80
2022/06/26 07:46:22;;;;;;;;;;;18.80;99.90;;;;;;5029275;28;19971;-80
2022/06/26 07:48:48;;;;;;;;;;;19.00;99.90;;;;;;5062392;28;20035;-80
2022/06/26 07:51:13;;;;;;;;;;;19.10;99.90;;;;;;5064697;28;19931;-80
2022/06/26 07:53:39;;;;;;;;;;;19.40;99.90;;;;;;5065587;28;19925;-77
2022/06/26 07:56:05;;;;;;;;;;;19.70;99.90;;;;;;5082122;28;19924;-79
2022/06/26 07:58:30;;;;;;;;;;;19.80;99.90;;;;;;5015817;28;19987;-80
2022/06/26 08:00:56;;;;;;;;;;;19.80;99.90;;;;;;5032120;28;19929;-80
2022/06/26 08:03:23;;;;;;;;;;;19.90;99.90;;;;;;5049000;28;20012;-80
2022/06/26 08:05:48;;;;;;;;;;;19.90;99.90;;;;;;5031352;28;19932;-81
2022/06/26 08:08:14;;;;;;;;;;;19.90;99.90;;;;;;5048849;28;19925;-78
2022/06/26 08:10:39;;;;;;;;;;;19.70;99.90;;;;;;5081778;28;19932;-80
2022/06/26 08:13:06;;;;;;;;;;;19.70;99.90;;;;;;5031917;28;19925;-80
2022/06/26 08:15:31;;;;;;;;;;;19.70;99.90;;;;;;5050039;28;19925;-80
2022/06/26 08:17:57;;;;;;;;;;;19.80;99.90;;;;;;5068728;28;19932;-79
2022/06/26 08:20:23;;;;;;;;;;;19.90;99.90;;;;;;5035370;28;19932;-80
2022/06/26 08:22:48;;;;;;;;;;;20.20;99.90;;;;;;5035100;28;19925;-81
2022/06/26 08:25:14;;;;;;;;;;;20.40;99.90;;;;;;5052184;28;19946;-80
2022/06/26 08:27:40;;;;;;;;;;;20.70;99.90;;;;;;5051886;28;19925;-78
2022/06/26 08:30:06;;;;;;;;;;;21.10;99.90;;;;;;5068646;28;19924;-78
2022/06/26 08:32:32;;;;;;;;;;;21.10;99.90;;;;;;5122545;27;20019;-81
2022/06/26 08:34:57;;;;;;;;;;;20.80;99.90;;;;;;5033894;28;19932;-79
2022/06/26 08:37:23;;;;;;;;;;;20.70;99.90;;;;;;5051574;28;19978;-81
2022/06/26 08:39:48;;;;;;;;;;;20.50;99.90;;;;;;5084996;28;20433;-79
2022/06/26 08:42:14;;;;;;;;;;;20.50;99.90;;;;;;5051724;28;19950;-78
2022/06/26 08:44:43;;;;;;;;;;;20.40;99.90;;;;;;5051196;28;19965;-79
2022/06/26 08:47:09;;;;;;;;;;;20.40;99.90;;;;;;5105044;28;20300;-78
2022/06/26 08:49:35;;;;;;;;;;;20.40;99.90;;;;;;5034871;28;20024;-78
2022/06/26 08:52:01;;;;;;;;;;;20.40;99.90;;;;;;5035142;28;20282;-78
2022/06/26 08:54:27;;;;;;;;;;;20.50;99.90;;;;;;5034586;28;19929;-79
2022/06/26 08:56:53;;;;;;;;;;;20.80;99.90;;;;;;5051487;28;20333;-78
2022/06/26 08:59:19;;;;;;;;;;;21.00;99.90;;;;;;5051997;28;19925;-78
2022/06/26 09:01:45;;;;;;;;;;;21.20;99.90;;;;;;5085181;28;19929;-78
2022/06/26 09:04:11;;;;;;;;;;;21.40;99.90;;;;;;5068304;28;20361;-79
2022/06/26 09:06:37;;;;;;;;;;;21.50;99.90;;;;;;5067474;28;19929;-79
2022/06/26 09:09:22;;;;;;;;;;;21.50;99.90;;;;;;5034589;28;19931;-79
2022/06/26 09:11:49;;;;;;;;;;;21.60;99.90;;;;;;5051288;28;19925;-80
2022/06/26 09:14:15;;;;;;;;;;;21.70;99.90;;;;;;5034497;28;20291;-79
2022/06/26 09:16:47;;;;;;;;;;;21.50;99.90;;;;;;5013665;28;19936;-83
2022/06/26 09:19:14;;;;;;;;;;;21.50;99.90;;;;;;5046477;27;19980;-85
2022/06/26 09:21:40;;;;;;;;;;;21.50;99.90;;;;;;5062278;28;19983;-80
2022/06/26 09:24:17;;;;;;;;;;;21.60;99.90;;;;;;5058027;28;19985;-80
2022/06/26 09:26:43;;;;;;;;;;;21.90;99.90;;;;;;5053772;27;19944;-80
2022/06/26 09:29:12;;;;;;;;;;;22.10;99.90;;;;;;5056875;27;19926;-80
2022/06/26 09:31:38;;;;;;;;;;;22.30;99.90;;;;;;5066266;27;20011;-80
2022/06/26 09:34:04;;;;;;;;;;;22.30;99.90;;;;;;5049671;27;19931;-82
2022/06/26 09:36:30;;;;;;;;;;;22.20;99.90;;;;;;5015888;28;19954;-82
2022/06/26 09:38:56;;;;;;;;;;;22.30;99.90;;;;;;5032845;28;20373;-82
2022/06/26 09:41:32;;;;;;;;;;;22.60;99.90;;;;;;5049981;28;19929;-84
2022/06/26 09:43:57;;;;;;;;;;;22.40;99.90;;;;;;5049457;27;19930;-83
2022/06/26 09:46:30;;;;;;;;;;;22.00;99.90;;;;;;5060079;27;19924;-85
2022/06/26 09:48:57;;;;;;;;;;;21.80;99.90;;;;;;5028854;28;20396;-85
2022/06/26 09:51:23;;;;;;;;;;;21.90;99.90;;;;;;5049201;27;19934;-84
2022/06/26 09:53:49;;;;;;;;;;;22.00;99.90;;;;;;5048448;27;19935;-80
2022/06/26 09:56:14;;;;;;;;;;;22.20;99.90;;;;;;5032618;27;19927;-84
2022/06/26 09:58:40;;;;;;;;;;;22.20;99.90;;;;;;5084791;27;19932;-82
2022/06/26 10:06:36;;;;;;;;;;;22.10;99.90;;;;;;5037567;27;19934;-84
2022/06/26 10:09:08;;;;;;;;;;;22.00;99.90;;;;;;5069770;27;19929;-84
2022/06/26 10:11:35;;;;;;;;;;;22.00;99.90;;;;;;5048839;27;20009;-85
2022/06/26 10:14:18;;;;;;;;;;;22.10;99.90;;;;;;5048469;27;19927;-85
2022/06/26 10:17:02;;;;;;;;;;;22.20;99.90;;;;;;5065013;27;19976;-88
2022/06/26 10:19:31;;;;;;;;;;;22.20;99.90;;;;;;5039306;27;19956;-93
2022/06/26 10:21:57;;;;;;;;;;;22.00;99.90;;;;;;5091820;27;20363;-85
2022/06/26 10:24:22;;;;;;;;;;;21.90;99.90;;;;;;5058420;27;19925;-92
2022/06/26 10:27:11;;;;;;;;;;;21.80;99.90;;;;;;5065964;27;19934;-84
2022/06/26 10:29:38;;;;;;;;;;;21.60;99.90;;;;;;5080704;27;19940;-91
2022/06/26 10:32:04;;;;;;;;;;;21.40;99.90;;;;;;5064298;27;20280;-84
2022/06/26 10:34:31;;;;;;;;;;;21.50;99.90;;;;;;5083367;27;19968;-84
2022/06/26 10:36:57;;;;;;;;;;;21.70;99.90;;;;;;5066229;27;20336;-81
2022/06/26 10:39:23;;;;;;;;;;;21.80;99.90;;;;;;5044682;27;19944;-85
2022/06/26 10:44:37;;;;;;;;;;;22.30;99.90;;;;;;5047579;28;20344;-87
2022/06/26 10:47:12;;;;;;;;;;;22.40;99.90;;;;;;5047717;28;19939;-85
2022/06/26 10:49:45;;;;;;;;;;;22.40;99.90;;;;;;5055304;27;19932;-79
2022/06/26 10:52:10;;;;;;;;;;;22.30;99.90;;;;;;5063608;28;20391;-80
2022/06/26 10:54:37;;;;;;;;;;;22.30;99.90;;;;;;5046599;28;19928;-85
2022/06/26 10:57:03;;;;;;;;;;;22.30;99.90;;;;;;5047526;28;19925;-84
2022/06/26 10:59:28;;;;;;;;;;;22.40;99.90;;;;;;5084919;27;19951;-80
2022/06/26 11:01:54;;;;;;;;;;;22.40;99.90;;;;;;5046758;28;20019;-84
2022/06/26 11:04:19;;;;;;;;;;;22.60;99.90;;;;;;5034375;27;19983;-85
2022/06/26 11:06:45;;;;;;;;;;;22.90;99.90;;;;;;5127113;27;20032;-87
2022/06/26 11:09:11;;;;;;;;;;;23.10;99.90;;;;;;5089886;27;19990;-87
2022/06/26 11:11:37;;;;;;;;;;;23.10;99.90;;;;;;5045737;28;19932;-82
2022/06/26 11:14:06;;;;;;;;;;;23.10;99.90;;;;;;5033008;28;19928;-83
2022/06/26 11:16:32;;;;;;;;;;;23.10;99.90;;;;;;5065110;27;20018;-83
2022/06/26 11:18:58;;;;;;;;;;;22.90;99.90;;;;;;5047530;27;20013;-82
2022/06/26 11:21:25;;;;;;;;;;;22.90;99.90;;;;;;5084792;27;20457;-80
2022/06/26 11:23:51;;;;;;;;;;;22.90;99.90;;;;;;5047304;27;19927;-83
2022/06/26 11:26:19;;;;;;;;;;;23.10;99.90;;;;;;5062262;27;19937;-84
2022/06/26 11:28:45;;;;;;;;;;;23.00;99.90;;;;;;5047594;27;19927;-86
2022/06/26 11:31:13;;;;;;;;;;;23.20;99.90;;;;;;5031569;27;19926;-84
2022/06/26 11:33:40;;;;;;;;;;;23.30;99.90;;;;;;5030254;28;19925;-86
2022/06/26 11:36:07;;;;;;;;;;;23.40;99.90;;;;;;5060963;28;20260;-83
2022/06/26 11:38:33;;;;;;;;;;;23.30;99.90;;;;;;5063589;28;19925;-84
2022/06/26 11:41:00;;;;;;;;;;;23.30;99.90;;;;;;5030464;28;19936;-88
2022/06/26 11:43:26;;;;;;;;;;;23.40;99.90;;;;;;5032565;28;19929;-85
2022/06/26 11:45:52;;;;;;;;;;;23.50;99.90;;;;;;5033619;27;19932;-87
2022/06/26 11:48:18;;;;;;;;;;;23.70;99.90;;;;;;5048175;27;20014;-87
2022/06/26 11:50:45;;;;;;;;;;;23.80;99.90;;;;;;5068151;27;19926;-86
2022/06/26 11:53:17;;;;;;;;;;;24.10;99.90;;;;;;5050949;27;19974;-86
2022/06/26 11:55:47;;;;;;;;;;;24.20;99.90;;;;;;5088410;27;19928;-87
2022/06/26 11:58:14;;;;;;;;;;;24.30;99.90;;;;;;5068116;27;19923;-87
2022/06/26 12:00:40;;;;;;;;;;;24.20;99.90;;;;;;5051777;27;19962;-87
2022/06/26 12:03:05;;;;;;;;;;;24.30;99.90;;;;;;5068437;27;20001;-86
2022/06/26 12:05:31;;;;;;;;;;;24.10;99.90;;;;;;5035934;27;19978;-87
2022/06/26 12:07:57;;;;;;;;;;;24.10;99.90;;;;;;5033684;28;19937;-85
2022/06/26 12:10:27;;;;;;;;;;;24.10;99.90;;;;;;5067232;28;19929;-86
2022/06/26 12:12:52;;;;;;;;;;;24.10;99.90;;;;;;5033978;28;20407;-88
2022/06/26 12:15:18;;;;;;;;;;;24.00;99.90;;;;;;5102377;27;19923;-85
2022/06/26 12:17:51;;;;;;;;;;;23.90;99.90;;;;;;5145829;27;20378;-85
2022/06/26 12:20:16;;;;;;;;;;;24.00;99.90;;;;;;5035430;27;20062;-84
2022/06/26 12:22:47;;;;;;;;;;;24.40;99.90;;;;;;5033122;28;20380;-85
2022/06/26 12:25:22;;;;;;;;;;;25.00;99.90;;;;;;5055001;27;20351;-85
2022/06/26 12:27:47;;;;;;;;;;;25.00;99.90;;;;;;5065653;27;20004;-83
2022/06/26 12:30:17;;;;;;;;;;;25.00;99.90;;;;;;5050496;27;19966;-86
2022/06/26 12:32:42;;;;;;;;;;;24.80;99.90;;;;;;5067280;27;19979;-86
2022/06/26 12:35:08;;;;;;;;;;;24.90;99.90;;;;;;5050717;27;20018;-86
2022/06/26 12:37:33;;;;;;;;;;;24.70;99.90;;;;;;5032469;27;19983;-86
2022/06/26 12:39:59;;;;;;;;;;;24.70;99.90;;;;;;5067125;27;20365;-85
2022/06/26 12:42:25;;;;;;;;;;;24.60;99.90;;;;;;5050722;27;19923;-86
2022/06/26 12:44:50;;;;;;;;;;;24.40;99.90;;;;;;5037515;27;19976;-86
2022/06/26 12:47:16;;;;;;;;;;;24.70;99.90;;;;;;5019251;28;20284;-86
2022/06/26 12:49:41;;;;;;;;;;;24.70;99.90;;;;;;5035697;28;19936;-87
2022/06/26 12:52:07;;;;;;;;;;;24.70;99.90;;;;;;5080775;27;20371;-86
2022/06/26 12:54:33;;;;;;;;;;;24.70;99.90;;;;;;5156625;27;19941;-86
2022/06/26 12:56:58;;;;;;;;;;;24.90;99.90;;;;;;5138799;27;19923;-87
2022/06/26 12:59:24;;;;;;;;;;;25.00;99.90;;;;;;5110297;27;19933;-86
2022/06/26 13:01:49;;;;;;;;;;;24.80;99.90;;;;;;5050663;27;20289;-85
2022/06/26 13:04:15;;;;;;;;;;;24.70;99.90;;;;;;5113132;27;19927;-87
2022/06/26 13:06:41;;;;;;;;;;;24.70;99.90;;;;;;5065012;27;19996;-86
2022/06/26 13:09:06;;;;;;;;;;;24.40;99.90;;;;;;5033379;28;19929;-87
2022/06/26 13:11:32;;;;;;;;;;;24.20;99.90;;;;;;5032845;28;19950;-87
2022/06/26 13:13:57;;;;;;;;;;;24.30;99.90;;;;;;5079073;27;19927;-85
2022/06/26 13:16:23;;;;;;;;;;;24.10;99.90;;;;;;5136794;27;19930;-86
2022/06/26 13:18:49;;;;;;;;;;;24.40;99.90;;;;;;5015575;28;19950;-88
2022/06/26 13:21:14;;;;;;;;;;;24.80;99.90;;;;;;5013227;28;19952;-87
2022/06/26 13:23:40;;;;;;;;;;;24.70;99.90;;;;;;5042552;27;19927;-86
2022/06/26 13:26:05;;;;;;;;;;;25.10;99.90;;;;;;5153134;27;20467;-86
2022/06/26 13:28:31;;;;;;;;;;;25.80;99.90;;;;;;5154036;27;20029;-88
2022/06/26 13:30:57;;;;;;;;;;;25.90;99.90;;;;;;5119975;27;19930;-86
2022/06/26 13:33:23;;;;;;;;;;;25.60;99.90;;;;;;5153795;27;19934;-88
2022/06/26 13:35:49;;;;;;;;;;;25.50;99.30;;;;;;5114517;27;19927;-84
2022/06/26 13:38:15;;;;;;;;;;;25.70;99.30;;;;;;5138696;27;19992;-86
2022/06/26 13:40:40;;;;;;;;;;;25.30;98.60;;;;;;5154151;27;19930;-86
2022/06/26 13:43:06;;;;;;;;;;;25.10;98.70;;;;;;5136842;27;19931;-87
2022/06/26 13:45:31;;;;;;;;;;;24.60;99.30;;;;;;5087563;27;19928;-84
2022/06/26 13:47:57;;;;;;;;;;;24.40;99.90;;;;;;5065767;28;19928;-87
2022/06/26 13:50:23;;;;;;;;;;;24.30;99.90;;;;;;5082586;28;20356;-87
2022/06/26 13:52:49;;;;;;;;;;;24.10;99.90;;;;;;5032218;28;19929;-87
2022/06/26 13:55:15;;;;;;;;;;;23.90;99.90;;;;;;5030880;27;19925;-86
2022/06/26 13:57:40;;;;;;;;;;;23.60;99.90;;;;;;5012610;28;19925;-87
2022/06/26 14:00:06;;;;;;;;;;;23.50;99.90;;;;;;5045334;28;19933;-87
2022/06/26 14:02:32;;;;;;;;;;;23.40;99.90;;;;;;5028659;28;19925;-86
2022/06/26 14:04:58;;;;;;;;;;;23.30;99.90;;;;;;5034118;27;20458;-90
2022/06/26 14:07:23;;;;;;;;;;;23.10;99.90;;;;;;5131227;27;20010;-79
2022/06/26 14:09:49;;;;;;;;;;;22.80;99.20;;;;;;5077322;27;20014;-81
2022/06/26 14:12:15;;;;;;;;;;;22.70;99.90;;;;;;5080328;27;19928;-82
2022/06/26 14:14:40;;;;;;;;;;;22.70;98.90;;;;;;5048631;27;19928;-81
2022/06/26 14:17:06;;;;;;;;;;;22.60;97.90;;;;;;5046950;28;19968;-85
2022/06/26 14:19:31;;;;;;;;;;;22.60;99.00;;;;;;5113392;27;19932;-81
2022/06/26 14:27:25;;;;;;;;;;;23.10;98.40;;;;;;5129818;27;19934;-81